Time;durP1;ratioP1;P1;durP2;ratioP2;P2;SDS_P1;SDS_P2;PMS_P1;PMS_P2;Temp;Humidity;BMP_temperature;BMP_pressure;BME280_temperature;BME280_humidity;BME280_pressure;Samples;Min_cycle;Max_cycle;Signal;HPM_P1;HPM_P2
2022/04/06 00:00:40;;;;;;;;;;;;;;;;;;5095506;28;19923;-29
2022/04/06 00:03:06;;;;;;;;;;;;;;;;;;5094912;28;20003;-28
2022/04/06 00:05:32;;;;;;;;;;;;;;;;;;5095467;28;19951;-28
2022/04/06 00:07:58;;;;;;;;;;;;;;;;;;5095446;28;19912;-28
2022/04/06 00:10:24;;;;;;;;;;;;;;;;;;5099054;28;19923;-28
2022/04/06 00:12:50;;;;;;;;;;;;;;;;;;5099213;28;19912;-28
2022/04/06 00:15:16;;;;;;;;;;;;;;;;;;5098568;28;20356;-28
2022/04/06 00:17:42;;;;;;;;;;;;;;;;;;5099507;28;20016;-28
2022/04/06 00:20:08;;;;;;;;;;;;;;;;;;5099492;28;20362;-28
2022/04/06 00:22:34;;;;;;;;;;;;;;;;;;5099064;28;19920;-28
2022/04/06 00:25:00;;;;;;;;;;;;;;;;;;5099096;28;19912;-28
2022/04/06 00:27:26;;;;;;;;;;;;;;;;;;5099049;28;19920;-28
2022/04/06 00:29:52;;;;;;;;;;;;;;;;;;5099056;28;19967;-28
2022/04/06 00:32:18;;;;;;;;;;;;;;;;;;5099041;28;19920;-28
2022/04/06 00:37:28;;;;;;;;;;;;;;;;;;5099236;28;19923;-28
2022/04/06 00:39:54;;;;;;;;;;;;;;;;;;5080924;28;20277;-28
2022/04/06 00:45:11;;;;;;;;;;;;;;;;;;5098838;28;19923;-28
2022/04/06 00:47:37;;;;;;;;;;;;;;;;;;5098716;28;19912;-28
2022/04/06 00:50:03;;;;;;;;;;;;;;;;;;5098917;28;19919;-28
2022/04/06 00:52:29;;;;;;;;;;;;;;;;;;5098450;28;19999;-28
2022/04/06 00:54:55;;;;;;;;;;;;;;;;;;5080734;28;19946;-28
2022/04/06 00:57:21;;;;;;;;;;;;;;;;;;5080595;28;19912;-28
2022/04/06 00:59:47;;;;;;;;;;;;;;;;;;5098757;28;19908;-28
2022/04/06 01:02:13;;;;;;;;;;;;;;;;;;5098322;28;20257;-28
2022/04/06 01:04:39;;;;;;;;;;;;;;;;;;5102324;28;19927;-28
2022/04/06 01:07:05;;;;;;;;;;;;;;;;;;5098317;28;19950;-28
2022/04/06 01:09:31;;;;;;;;;;;;;;;;;;5099158;28;19908;-28
2022/04/06 01:11:58;;;;;;;;;;;;;;;;;;5098303;28;19999;-28
2022/04/06 01:14:24;;;;;;;;;;;;;;;;;;5098161;28;19908;-29
2022/04/06 01:16:50;;;;;;;;;;;;;;;;;;5098137;28;19916;-28
2022/04/06 01:19:16;;;;;;;;;;;;;;;;;;5097820;28;19909;-28
2022/04/06 01:21:42;;;;;;;;;;;;;;;;;;5098018;28;20399;-28
2022/04/06 01:24:08;;;;;;;;;;;;;;;;;;5097890;28;19919;-28
2022/04/06 01:26:34;;;;;;;;;;;;;;;;;;5098759;28;19908;-28
2022/04/06 01:29:00;;;;;;;;;;;;;;;;;;5098209;28;19912;-29
2022/04/06 01:31:26;;;;;;;;;;;;;;;;;;5079936;28;20017;-29
2022/04/06 01:33:52;;;;;;;;;;;;;;;;;;5079891;28;19912;-29
2022/04/06 01:36:18;;;;;;;;;;;;;;;;;;5079869;28;19915;-29
2022/04/06 01:38:44;;;;;;;;;;;;;;;;;;5097733;28;19908;-27
2022/04/06 01:41:10;;;;;;;;;;;;;;;;;;5097608;28;19923;-28
2022/04/06 01:43:36;;;;;;;;;;;;;;;;;;5097581;28;19908;-28
2022/04/06 01:46:02;;;;;;;;;;;;;;;;;;5079741;28;19916;-29
2022/04/06 01:48:28;;;;;;;;;;;;;;;;;;5097518;28;20009;-28
2022/04/06 01:53:50;;;;;;;;;;;;;;;;;;5025352;28;20012;-28
2022/04/06 01:56:18;;;;;;;;;;;;;;;;;;5097355;28;19924;-28
2022/04/06 01:58:44;;;;;;;;;;;;;;;;;;5079509;28;19958;-28
2022/04/06 02:01:10;;;;;;;;;;;;;;;;;;5097270;28;19912;-29
2022/04/06 02:03:36;;;;;;;;;;;;;;;;;;5096993;28;19993;-29
2022/04/06 02:06:02;;;;;;;;;;;;;;;;;;5097202;28;19946;-29
2022/04/06 02:08:28;;;;;;;;;;;;;;;;;;5079289;28;19908;-29
2022/04/06 02:10:54;;;;;;;;;;;;;;;;;;5096977;28;19959;-28
2022/04/06 02:13:20;;;;;;;;;;;;;;;;;;5079068;28;19948;-28
2022/04/06 02:15:46;;;;;;;;;;;;;;;;;;5096957;28;20240;-29
2022/04/06 02:18:12;;;;;;;;;;;;;;;;;;5079061;28;19916;-29
2022/04/06 02:20:38;;;;;;;;;;;;;;;;;;5097179;28;20003;-28
2022/04/06 02:23:04;;;;;;;;;;;;;;;;;;5078935;28;19952;-29
2022/04/06 02:25:30;;;;;;;;;;;;;;;;;;5079239;28;20335;-29
2022/04/06 02:27:56;;;;;;;;;;;;;;;;;;5096970;28;20250;-28
2022/04/06 02:30:22;;;;;;;;;;;;;;;;;;5078810;28;20003;-28
2022/04/06 02:32:48;;;;;;;;;;;;;;;;;;5095603;28;19943;-28
2022/04/06 02:35:14;;;;;;;;;;;;;;;;;;5097445;28;19916;-28
2022/04/06 02:37:41;;;;;;;;;;;;;;;;;;5096514;28;19916;-29
2022/04/06 02:40:07;;;;;;;;;;;;;;;;;;5078660;28;20396;-28
2022/04/06 02:42:33;;;;;;;;;;;;;;;;;;5096674;28;20250;-29
2022/04/06 02:44:59;;;;;;;;;;;;;;;;;;5078573;28;19908;-28
2022/04/06 02:47:25;;;;;;;;;;;;;;;;;;5096680;28;20368;-28
2022/04/06 02:49:51;;;;;;;;;;;;;;;;;;5096378;28;19908;-28
2022/04/06 02:52:17;;;;;;;;;;;;;;;;;;5096190;28;20262;-28
2022/04/06 02:54:43;;;;;;;;;;;;;;;;;;5096234;28;19912;-28
2022/04/06 02:57:09;;;;;;;;;;;;;;;;;;5096160;28;19912;-28
2022/04/06 02:59:37;;;;;;;;;;;;;;;;;;5096182;28;19908;-28
2022/04/06 03:02:03;;;;;;;;;;;;;;;;;;5095951;28;20066;-28
2022/04/06 03:04:29;;;;;;;;;;;;;;;;;;5083791;28;19963;-28
2022/04/06 03:06:55;;;;;;;;;;;;;;;;;;5096268;28;20022;-28
2022/04/06 03:09:21;;;;;;;;;;;;;;;;;;5095977;28;20009;-36
2022/04/06 03:11:47;;;;;;;;;;;;;;;;;;5096049;28;19934;-28
2022/04/06 03:14:13;;;;;;;;;;;;;;;;;;5095880;28;20341;-28
2022/04/06 03:16:39;;;;;;;;;;;;;;;;;;5096079;28;20270;-28
2022/04/06 03:19:05;;;;;;;;;;;;;;;;;;5096103;28;19915;-28
2022/04/06 03:21:31;;;;;;;;;;;;;;;;;;5095867;28;20385;-28
2022/04/06 03:23:57;;;;;;;;;;;;;;;;;;5095680;28;20019;-28
2022/04/06 03:26:23;;;;;;;;;;;;;;;;;;5095926;28;19939;-28
2022/04/06 03:28:50;;;;;;;;;;;;;;;;;;5095623;28;19912;-28
2022/04/06 03:31:16;;;;;;;;;;;;;;;;;;5094678;28;19915;-28
2022/04/06 03:33:42;;;;;;;;;;;;;;;;;;5095566;28;19923;-28
2022/04/06 03:36:08;;;;;;;;;;;;;;;;;;5095551;28;19908;-28
2022/04/06 03:38:34;;;;;;;;;;;;;;;;;;5095772;28;19912;-28
2022/04/06 03:41:00;;;;;;;;;;;;;;;;;;5094502;28;20010;-27
2022/04/06 03:43:26;;;;;;;;;;;;;;;;;;5094130;28;19923;-28
2022/04/06 03:45:52;;;;;;;;;;;;;;;;;;5095283;28;19968;-28
2022/04/06 03:48:21;;;;;;;;;;;;;;;;;;5095367;28;19995;-28
2022/04/06 03:50:48;;;;;;;;;;;;;;;;;;5095213;28;19919;-28
2022/04/06 03:53:14;;;;;;;;;;;;;;;;;;5094993;28;19920;-29
2022/04/06 03:55:40;;;;;;;;;;;;;;;;;;5095324;28;20331;-29
2022/04/06 03:58:06;;;;;;;;;;;;;;;;;;5094875;28;19923;-29
2022/04/06 04:00:32;;;;;;;;;;;;;;;;;;5095086;28;20339;-28
2022/04/06 04:02:58;;;;;;;;;;;;;;;;;;5094107;28;19965;-28
2022/04/06 04:05:24;;;;;;;;;;;;;;;;;;5094594;28;19947;-29
2022/04/06 04:07:50;;;;;;;;;;;;;;;;;;5076967;28;19912;-29
2022/04/06 04:10:19;;;;;;;;;;;;;;;;;;5094746;28;19919;-29
2022/04/06 04:12:45;;;;;;;;;;;;;;;;;;5094526;28;19923;-29
2022/04/06 04:15:11;;;;;;;;;;;;;;;;;;5094858;28;19908;-30
2022/04/06 04:17:37;;;;;;;;;;;;;;;;;;5094965;28;20247;-28
2022/04/06 04:20:04;;;;;;;;;;;;;;;;;;5077148;28;19912;-29
2022/04/06 04:22:30;;;;;;;;;;;;;;;;;;5095019;28;20250;-29
2022/04/06 04:24:56;;;;;;;;;;;;;;;;;;5076974;28;20362;-29
2022/04/06 04:27:22;;;;;;;;;;;;;;;;;;5094652;28;19912;-30
2022/04/06 04:29:48;;;;;;;;;;;;;;;;;;5077159;28;19969;-30
2022/04/06 04:32:16;;;;;;;;;;;;;;;;;;5076478;28;19916;-29
2022/04/06 04:34:42;;;;;;;;;;;;;;;;;;5094575;28;19916;-32
2022/04/06 04:37:08;;;;;;;;;;;;;;;;;;5094598;28;20007;-30
2022/04/06 04:39:34;;;;;;;;;;;;;;;;;;5095244;28;19948;-29
2022/04/06 04:42:00;;;;;;;;;;;;;;;;;;5094760;28;20231;-30
2022/04/06 04:44:26;;;;;;;;;;;;;;;;;;5094966;28;19912;-30
2022/04/06 04:46:52;;;;;;;;;;;;;;;;;;5094682;28;20342;-30
2022/04/06 04:49:18;;;;;;;;;;;;;;;;;;5094826;28;19912;-29
2022/04/06 04:51:44;;;;;;;;;;;;;;;;;;5094610;28;19966;-30
2022/04/06 04:54:12;;;;;;;;;;;;;;;;;;5094959;28;20357;-29
2022/04/06 04:56:41;;;;;;;;;;;;;;;;;;5098646;28;19935;-29
2022/04/06 04:59:07;;;;;;;;;;;;;;;;;;5098570;28;19998;-29
2022/04/06 05:01:33;;;;;;;;;;;;;;;;;;5098330;28;19908;-30
2022/04/06 05:03:59;;;;;;;;;;;;;;;;;;5098230;28;19916;-29
2022/04/06 05:06:25;;;;;;;;;;;;;;;;;;5098455;28;20330;-29
2022/04/06 05:08:51;;;;;;;;;;;;;;;;;;5098429;28;19912;-30
2022/04/06 05:11:17;;;;;;;;;;;;;;;;;;5098395;28;19915;-29
2022/04/06 05:13:43;;;;;;;;;;;;;;;;;;5079995;28;19912;-29
2022/04/06 05:16:09;;;;;;;;;;;;;;;;;;5097855;28;19919;-29
2022/04/06 05:18:35;;;;;;;;;;;;;;;;;;5097867;28;19915;-29
2022/04/06 05:21:01;;;;;;;;;;;;;;;;;;5097814;28;19912;-30
2022/04/06 05:23:27;;;;;;;;;;;;;;;;;;5097758;28;19955;-30
2022/04/06 05:25:53;;;;;;;;;;;;;;;;;;5097786;28;20000;-30
2022/04/06 05:28:19;;;;;;;;;;;;;;;;;;5079870;28;19912;-29
2022/04/06 05:30:46;;;;;;;;;;;;;;;;;;5097788;28;19919;-30
2022/04/06 05:33:12;;;;;;;;;;;;;;;;;;5097535;28;19920;-30
2022/04/06 05:35:38;;;;;;;;;;;;;;;;;;5097583;28;20358;-29
2022/04/06 05:38:04;;;;;;;;;;;;;;;;;;5079650;28;19962;-30
2022/04/06 05:40:30;;;;;;;;;;;;;;;;;;5097586;28;19912;-30
2022/04/06 05:42:56;;;;;;;;;;;;;;;;;;5079405;28;19977;-30
2022/04/06 05:45:22;;;;;;;;;;;;;;;;;;5097937;28;20355;-28
2022/04/06 05:47:48;;;;;;;;;;;;;;;;;;5079478;28;19916;-29
2022/04/06 05:50:14;;;;;;;;;;;;;;;;;;5097687;28;19966;-30
2022/04/06 05:52:40;;;;;;;;;;;;;;;;;;5096960;28;19971;-29
2022/04/06 05:55:06;;;;;;;;;;;;;;;;;;5097049;28;19943;-29
2022/04/06 05:57:32;;;;;;;;;;;;;;;;;;5097080;28;20172;-29
2022/04/06 05:59:58;;;;;;;;;;;;;;;;;;5097697;28;19947;-29
2022/04/06 06:02:24;;;;;;;;;;;;;;;;;;5097258;28;19955;-29
2022/04/06 06:04:50;;;;;;;;;;;;;;;;;;5087917;28;19920;-29
2022/04/06 06:07:16;;;;;;;;;;;;;;;;;;5097146;28;20058;-29
2022/04/06 06:09:42;;;;;;;;;;;;;;;;;;5097199;28;20301;-29
2022/04/06 06:12:08;;;;;;;;;;;;;;;;;;5097135;28;19916;-29
2022/04/06 06:14:34;;;;;;;;;;;;;;;;;;5096768;28;19912;-29
2022/04/06 06:17:00;;;;;;;;;;;;;;;;;;5096828;28;19926;-29
2022/04/06 06:19:26;;;;;;;;;;;;;;;;;;5096978;28;19951;-29
2022/04/06 06:21:52;;;;;;;;;;;;;;;;;;5096548;28;19920;-29
2022/04/06 06:24:20;;;;;;;;;;;;;;;;;;5096651;28;19973;-29
2022/04/06 06:26:46;;;;;;;;;;;;;;;;;;5096573;28;19916;-29
2022/04/06 06:29:12;;;;;;;;;;;;;;;;;;5096589;28;19961;-28
2022/04/06 06:31:38;;;;;;;;;;;;;;;;;;5096707;28;19961;-30
2022/04/06 06:34:04;;;;;;;;;;;;;;;;;;5096371;28;19912;-29
2022/04/06 06:36:30;;;;;;;;;;;;;;;;;;5096170;28;19943;-29
2022/04/06 06:38:56;;;;;;;;;;;;;;;;;;5095312;28;19954;-29
2022/04/06 06:41:22;;;;;;;;;;;;;;;;;;5096391;28;19916;-29
2022/04/06 06:43:48;;;;;;;;;;;;;;;;;;5096244;28;20010;-29
2022/04/06 06:46:14;;;;;;;;;;;;;;;;;;5096035;28;19923;-30
2022/04/06 06:48:40;;;;;;;;;;;;;;;;;;5096174;28;19938;-29
2022/04/06 06:51:06;;;;;;;;;;;;;;;;;;5096131;28;19912;-29
2022/04/06 06:53:32;;;;;;;;;;;;;;;;;;5094919;28;20253;-29
2022/04/06 06:55:58;;;;;;;;;;;;;;;;;;5096028;28;19912;-30
2022/04/06 06:58:24;;;;;;;;;;;;;;;;;;5096189;28;19944;-30
2022/04/06 07:00:50;;;;;;;;;;;;;;;;;;5096020;28;19969;-29
2022/04/06 07:03:16;;;;;;;;;;;;;;;;;;5096122;28;19966;-30
2022/04/06 07:05:44;;;;;;;;;;;;;;;;;;5095748;28;19924;-29
2022/04/06 07:08:11;;;;;;;;;;;;;;;;;;5095916;28;19934;-30
2022/04/06 07:10:37;;;;;;;;;;;;;;;;;;5095814;28;19912;-29
2022/04/06 07:13:03;;;;;;;;;;;;;;;;;;5096017;28;19927;-29
2022/04/06 07:15:29;;;;;;;;;;;;;;;;;;5077808;28;20266;-30
2022/04/06 07:17:55;;;;;;;;;;;;;;;;;;5095426;28;19908;-29
2022/04/06 07:20:21;;;;;;;;;;;;;;;;;;5095493;28;20251;-29
2022/04/06 07:22:47;;;;;;;;;;;;;;;;;;5095472;28;19938;-30
2022/04/06 07:25:13;;;;;;;;;;;;;;;;;;5095271;28;19912;-29
2022/04/06 07:27:40;;;;;;;;;;;;;;;;;;5095565;28;19912;-29
2022/04/06 07:30:06;;;;;;;;;;;;;;;;;;5095389;28;19908;-30
2022/04/06 07:32:32;;;;;;;;;;;;;;;;;;5095211;28;19939;-30
2022/04/06 07:34:58;;;;;;;;;;;;;;;;;;5095582;28;19920;-29
2022/04/06 07:37:24;;;;;;;;;;;;;;;;;;5095289;28;19920;-29
2022/04/06 07:39:50;;;;;;;;;;;;;;;;;;5095619;28;19998;-29
2022/04/06 07:42:16;;;;;;;;;;;;;;;;;;5095194;28;19966;-29
2022/04/06 07:44:42;;;;;;;;;;;;;;;;;;5077328;28;20362;-29
2022/04/06 07:47:08;;;;;;;;;;;;;;;;;;5077254;28;19908;-29
2022/04/06 07:49:34;;;;;;;;;;;;;;;;;;5095095;28;20346;-30
2022/04/06 07:52:00;;;;;;;;;;;;;;;;;;5095298;28;19912;-30
2022/04/06 07:54:26;;;;;;;;;;;;;;;;;;5077217;28;19942;-30
2022/04/06 07:56:52;;;;;;;;;;;;;;;;;;5095098;28;19908;-30
2022/04/06 07:59:18;;;;;;;;;;;;;;;;;;5095052;28;20264;-32
2022/04/06 08:01:44;;;;;;;;;;;;;;;;;;5077303;28;20345;-29
2022/04/06 08:04:10;;;;;;;;;;;;;;;;;;5094507;28;20025;-29
2022/04/06 08:06:36;;;;;;;;;;;;;;;;;;5094908;28;19908;-30
2022/04/06 08:09:06;;;;;;;;;;;;;;;;;;5094919;28;19973;-29
2022/04/06 08:11:32;;;;;;;;;;;;;;;;;;5094875;28;19912;-29
2022/04/06 08:13:58;;;;;;;;;;;;;;;;;;5094786;28;19925;-29
2022/04/06 08:16:24;;;;;;;;;;;;;;;;;;5094757;28;20321;-29
2022/04/06 08:18:50;;;;;;;;;;;;;;;;;;5094684;28;19912;-30
2022/04/06 08:21:27;;;;;;;;;;;;;;;;;;5095027;28;19965;-29
2022/04/06 08:23:53;;;;;;;;;;;;;;;;;;5094896;28;19912;-29
2022/04/06 08:32:01;;;;;;;;;;;;;;;;;;5098969;28;19943;-30
2022/04/06 08:34:28;;;;;;;;;;;;;;;;;;5098701;28;19912;-30
2022/04/06 08:36:54;;;;;;;;;;;;;;;;;;5098894;28;19908;-29
2022/04/06 08:39:20;;;;;;;;;;;;;;;;;;5098600;28;20011;-29
2022/04/06 08:41:46;;;;;;;;;;;;;;;;;;5080685;28;19919;-29
2022/04/06 08:49:43;;;;;;;;;;;;;;;;;;5117806;28;19928;-29
2022/04/06 08:52:09;;;;;;;;;;;;;;;;;;5118995;28;19915;-30
2022/04/06 08:54:35;;;;;;;;;;;;;;;;;;5118777;28;19911;-30
2022/04/06 08:57:01;;;;;;;;;;;;;;;;;;5118665;28;19908;-30
2022/04/06 08:59:27;;;;;;;;;;;;;;;;;;5118661;28;19912;-30
2022/04/06 09:01:53;;;;;;;;;;;;;;;;;;5118726;28;19912;-30
2022/04/06 09:04:20;;;;;;;;;;;;;;;;;;5118682;28;19923;-29
2022/04/06 09:06:47;;;;;;;;;;;;;;;;;;5118549;28;19916;-30
2022/04/06 09:09:13;;;;;;;;;;;;;;;;;;5118849;28;19912;-30
2022/04/06 09:11:39;;;;;;;;;;;;;;;;;;5118369;28;19942;-30
2022/04/06 09:14:05;;;;;;;;;;;;;;;;;;5100554;28;19907;-30
2022/04/06 09:16:34;;;;;;;;;;;;;;;;;;5118251;28;19999;-30
2022/04/06 09:19:00;;;;;;;;;;;;;;;;;;5100166;28;19995;-29
2022/04/06 09:21:26;;;;;;;;;;;;;;;;;;5118072;28;19923;-28
2022/04/06 09:23:52;;;;;;;;;;;;;;;;;;5100284;28;19908;-29
2022/04/06 09:26:19;;;;;;;;;;;;;;;;;;5118521;28;19923;-29
2022/04/06 09:28:45;;;;;;;;;;;;;;;;;;5118051;28;19912;-30
2022/04/06 09:31:11;;;;;;;;;;;;;;;;;;5117954;28;20048;-30
2022/04/06 09:33:41;;;;;;;;;;;;;;;;;;5118170;28;19912;-30
2022/04/06 09:36:07;;;;;;;;;;;;;;;;;;5117995;28;19916;-30
2022/04/06 09:38:33;;;;;;;;;;;;;;;;;;5117854;28;19968;-29
2022/04/06 09:40:59;;;;;;;;;;;;;;;;;;5117621;28;19911;-30
2022/04/06 09:43:25;;;;;;;;;;;;;;;;;;5118111;28;20355;-30
2022/04/06 09:48:36;;;;;;;;;;;;;;;;;;5117410;28;19966;-30
2022/04/06 09:51:02;;;;;;;;;;;;;;;;;;5117871;28;19912;-30
2022/04/06 09:53:28;;;;;;;;;;;;;;;;;;5117589;28;20466;-30
2022/04/06 09:55:54;;;;;;;;;;;;;;;;;;5117702;28;19915;-30
2022/04/06 09:58:20;;;;;;;;;;;;;;;;;;5117720;28;20015;-30
2022/04/06 10:00:46;;;;;;;;;;;;;;;;;;5099543;28;19911;-30
2022/04/06 10:03:12;;;;;;;;;;;;;;;;;;5117560;28;19915;-29
2022/04/06 10:05:38;;;;;;;;;;;;;;;;;;5117384;28;19911;-29
2022/04/06 10:08:04;;;;;;;;;;;;;;;;;;5117339;28;19915;-29
2022/04/06 10:10:30;;;;;;;;;;;;;;;;;;5099261;28;19912;-30
2022/04/06 10:12:56;;;;;;;;;;;;;;;;;;5117133;28;19912;-29
2022/04/06 10:15:22;;;;;;;;;;;;;;;;;;5117619;28;19915;-30
2022/04/06 10:17:48;;;;;;;;;;;;;;;;;;5117425;28;20242;-30
2022/04/06 10:20:14;;;;;;;;;;;;;;;;;;5117134;28;19912;-30
2022/04/06 10:22:40;;;;;;;;;;;;;;;;;;5117251;28;19919;-29
2022/04/06 10:25:08;;;;;;;;;;;;;;;;;;5117379;28;19908;-30
2022/04/06 10:27:34;;;;;;;;;;;;;;;;;;5116933;28;19943;-30
2022/04/06 10:30:00;;;;;;;;;;;;;;;;;;5098853;28;19919;-29
2022/04/06 10:32:26;;;;;;;;;;;;;;;;;;5116784;28;19920;-30
2022/04/06 10:34:52;;;;;;;;;;;;;;;;;;5116909;28;19908;-30
2022/04/06 10:37:18;;;;;;;;;;;;;;;;;;5116800;28;19918;-30
2022/04/06 10:39:44;;;;;;;;;;;;;;;;;;5116952;28;20257;-30
2022/04/06 10:42:10;;;;;;;;;;;;;;;;;;5117470;28;20022;-30
2022/04/06 10:44:36;;;;;;;;;;;;;;;;;;5116690;28;19984;-30
2022/04/06 10:47:02;;;;;;;;;;;;;;;;;;5116414;28;19922;-30
2022/04/06 10:49:28;;;;;;;;;;;;;;;;;;5116397;28;20207;-29
2022/04/06 10:51:56;;;;;;;;;;;;;;;;;;5115865;28;19915;-30
2022/04/06 10:54:23;;;;;;;;;;;;;;;;;;5098282;28;19972;-30
2022/04/06 10:56:49;;;;;;;;;;;;;;;;;;5116480;28;19998;-30
2022/04/06 10:59:15;;;;;;;;;;;;;;;;;;5116504;28;20320;-29
2022/04/06 11:01:45;;;;;;;;;;;;;;;;;;5116622;28;19911;-30
2022/04/06 11:04:11;;;;;;;;;;;;;;;;;;5116277;28;20231;-30
2022/04/06 11:06:37;;;;;;;;;;;;;;;;;;5116234;28;19968;-29
2022/04/06 11:11:48;;;;;;;;;;;;;;;;;;5116154;28;19919;-30
2022/04/06 11:14:14;;;;;;;;;;;;;;;;;;5116064;28;19968;-30
2022/04/06 11:16:40;;;;;;;;;;;;;;;;;;5115893;28;20004;-30
2022/04/06 11:19:06;;;;;;;;;;;;;;;;;;5097929;28;19919;-30
2022/04/06 11:21:33;;;;;;;;;;;;;;;;;;5116052;28;19912;-29
2022/04/06 11:23:59;;;;;;;;;;;;;;;;;;5097927;28;19965;-30
2022/04/06 11:26:25;;;;;;;;;;;;;;;;;;5116227;28;20326;-30
2022/04/06 11:28:51;;;;;;;;;;;;;;;;;;5115814;28;19920;-31
2022/04/06 11:31:18;;;;;;;;;;;;;;;;;;5115954;28;19973;-30
2022/04/06 11:33:44;;;;;;;;;;;;;;;;;;5115569;28;19978;-29
2022/04/06 11:36:10;;;;;;;;;;;;;;;;;;5115487;28;20262;-30
2022/04/06 11:38:36;;;;;;;;;;;;;;;;;;5115763;28;20238;-30
2022/04/06 11:41:03;;;;;;;;;;;;;;;;;;5115896;28;19939;-30
2022/04/06 11:43:28;;;;;;;;;;;;;;;;;;5115540;28;19977;-30
2022/04/06 11:45:54;;;;;;;;;;;;;;;;;;5115674;28;19908;-30
2022/04/06 11:48:20;;;;;;;;;;;;;;;;;;5115321;28;20020;-30
2022/04/06 11:50:48;;;;;;;;;;;;;;;;;;5115748;28;20004;-30
2022/04/06 11:53:18;;;;;;;;;;;;;;;;;;5115350;28;19916;-30
2022/04/06 11:55:47;;;;;;;;;;;;;;;;;;5115843;28;19912;-30
2022/04/06 11:58:13;;;;;;;;;;;;;;;;;;5115289;28;19919;-30
2022/04/06 12:00:39;;;;;;;;;;;;;;;;;;5115459;28;19915;-30
2022/04/06 12:03:05;;;;;;;;;;;;;;;;;;5115319;28;20249;-30
2022/04/06 12:05:33;;;;;;;;;;;;;;;;;;5115200;28;19931;-29
2022/04/06 12:07:59;;;;;;;;;;;;;;;;;;5096828;28;20308;-30
2022/04/06 12:10:25;;;;;;;;;;;;;;;;;;5115107;28;19912;-30
2022/04/06 12:12:51;;;;;;;;;;;;;;;;;;5115287;28;19923;-29
2022/04/06 12:15:17;;;;;;;;;;;;;;;;;;5097324;28;19911;-30
2022/04/06 12:17:45;;;;;;;;;;;;;;;;;;5115110;28;19951;-30
2022/04/06 12:20:11;;;;;;;;;;;;;;;;;;5097128;28;19947;-30
2022/04/06 12:22:37;;;;;;;;;;;;;;;;;;5097250;28;19915;-30
2022/04/06 12:25:03;;;;;;;;;;;;;;;;;;5115320;28;19958;-30
2022/04/06 12:27:29;;;;;;;;;;;;;;;;;;5097115;28;19995;-29
2022/04/06 12:29:55;;;;;;;;;;;;;;;;;;5115430;28;19908;-29
2022/04/06 12:32:21;;;;;;;;;;;;;;;;;;5115346;28;19916;-30
2022/04/06 12:34:47;;;;;;;;;;;;;;;;;;5115132;28;20280;-30
2022/04/06 12:37:31;;;;;;;;;;;;;;;;;;5115068;28;19922;-30
2022/04/06 12:39:58;;;;;;;;;;;;;;;;;;5114893;28;19968;-30
2022/04/06 12:42:24;;;;;;;;;;;;;;;;;;5115092;28;19919;-31
2022/04/06 12:44:50;;;;;;;;;;;;;;;;;;5114863;28;19943;-30
2022/04/06 12:47:16;;;;;;;;;;;;;;;;;;5114774;28;19923;-30
2022/04/06 12:49:42;;;;;;;;;;;;;;;;;;5114532;28;19920;-30
2022/04/06 12:52:08;;;;;;;;;;;;;;;;;;5115002;28;19915;-30
2022/04/06 12:54:34;;;;;;;;;;;;;;;;;;5115042;28;19990;-30
2022/04/06 12:57:00;;;;;;;;;;;;;;;;;;5114679;28;19912;-30
2022/04/06 12:59:26;;;;;;;;;;;;;;;;;;5114807;28;20239;-29
2022/04/06 13:01:53;;;;;;;;;;;;;;;;;;5097011;28;20338;-30
2022/04/06 13:04:19;;;;;;;;;;;;;;;;;;5114867;28;19922;-29
2022/04/06 13:06:45;;;;;;;;;;;;;;;;;;5096774;28;19911;-30
2022/04/06 13:09:12;;;;;;;;;;;;;;;;;;5096674;28;20369;-30
2022/04/06 13:11:38;;;;;;;;;;;;;;;;;;5097683;28;19916;-30
2022/04/06 13:14:04;;;;;;;;;;;;;;;;;;5096646;28;19938;-30
2022/04/06 13:16:30;;;;;;;;;;;;;;;;;;5116786;28;19908;-30
2022/04/06 13:18:56;;;;;;;;;;;;;;;;;;5118533;28;19918;-30
2022/04/06 13:21:28;;;;;;;;;;;;;;;;;;5118304;28;20393;-30
2022/04/06 13:23:53;;;;;;;;;;;;;;;;;;5118195;28;20334;-30
2022/04/06 13:26:20;;;;;;;;;;;;;;;;;;5118431;28;19919;-30
2022/04/06 13:28:47;;;;;;;;;;;;;;;;;;5119006;28;19911;-29
2022/04/06 13:31:13;;;;;;;;;;;;;;;;;;5118087;28;19916;-29
2022/04/06 13:33:39;;;;;;;;;;;;;;;;;;5117981;28;19918;-29
2022/04/06 13:36:05;;;;;;;;;;;;;;;;;;5099961;28;20324;-29
2022/04/06 13:38:32;;;;;;;;;;;;;;;;;;5117811;28;19908;-29
2022/04/06 13:40:58;;;;;;;;;;;;;;;;;;5117906;28;19916;-28
2022/04/06 13:43:24;;;;;;;;;;;;;;;;;;5117955;28;19927;-29
2022/04/06 13:45:50;;;;;;;;;;;;;;;;;;5117731;28;19908;-29
2022/04/06 13:48:18;;;;;;;;;;;;;;;;;;5117352;28;19919;-29
2022/04/06 13:50:44;;;;;;;;;;;;;;;;;;5117818;28;19916;-29
2022/04/06 13:53:14;;;;;;;;;;;;;;;;;;5117545;28;20322;-29
2022/04/06 13:55:40;;;;;;;;;;;;;;;;;;5099725;28;19943;-29
2022/04/06 13:58:06;;;;;;;;;;;;;;;;;;5099528;28;19972;-29
2022/04/06 14:00:34;;;;;;;;;;;;;;;;;;5117787;28;19934;-29
2022/04/06 14:03:00;;;;;;;;;;;;;;;;;;5117690;28;19915;-29
2022/04/06 14:05:26;;;;;;;;;;;;;;;;;;5117500;28;19912;-29
2022/04/06 14:07:52;;;;;;;;;;;;;;;;;;5117420;28;19943;-29
2022/04/06 14:10:20;;;;;;;;;;;;;;;;;;5116543;28;20451;-28
2022/04/06 14:12:46;;;;;;;;;;;;;;;;;;5099022;28;19923;-29
2022/04/06 14:15:12;;;;;;;;;;;;;;;;;;5117004;28;19912;-29
2022/04/06 14:17:39;;;;;;;;;;;;;;;;;;5117208;28;19919;-28
2022/04/06 14:20:05;;;;;;;;;;;;;;;;;;5117029;28;19951;-29
2022/04/06 14:22:31;;;;;;;;;;;;;;;;;;5116973;28;19907;-29
2022/04/06 14:25:15;;;;;;;;;;;;;;;;;;5117216;28;20321;-29
2022/04/06 14:27:43;;;;;;;;;;;;;;;;;;5115681;28;19908;-29
2022/04/06 14:30:09;;;;;;;;;;;;;;;;;;5117201;28;20290;-29
2022/04/06 14:32:35;;;;;;;;;;;;;;;;;;5098837;28;19959;-29
2022/04/06 14:35:01;;;;;;;;;;;;;;;;;;5117057;28;19946;-29
2022/04/06 14:37:27;;;;;;;;;;;;;;;;;;5116830;28;20319;-29
2022/04/06 14:39:53;;;;;;;;;;;;;;;;;;5098999;28;19915;-29
2022/04/06 14:42:19;;;;;;;;;;;;;;;;;;5098881;28;19955;-29
2022/04/06 14:44:45;;;;;;;;;;;;;;;;;;5116884;28;20262;-29
2022/04/06 14:47:11;;;;;;;;;;;;;;;;;;5116562;28;19948;-29
2022/04/06 14:49:37;;;;;;;;;;;;;;;;;;5116382;28;19934;-29
2022/04/06 14:52:04;;;;;;;;;;;;;;;;;;5116738;28;19915;-29
2022/04/06 14:54:30;;;;;;;;;;;;;;;;;;5116737;28;20006;-29
2022/04/06 14:56:56;;;;;;;;;;;;;;;;;;5116361;28;20370;-29
2022/04/06 14:59:22;;;;;;;;;;;;;;;;;;5116323;28;19912;-28
2022/04/06 15:01:48;;;;;;;;;;;;;;;;;;5116244;28;20213;-29
2022/04/06 15:04:14;;;;;;;;;;;;;;;;;;5116489;28;20039;-29
2022/04/06 15:06:40;;;;;;;;;;;;;;;;;;5116185;28;19951;-29
2022/04/06 15:09:09;;;;;;;;;;;;;;;;;;5116803;28;19907;-29
2022/04/06 15:11:35;;;;;;;;;;;;;;;;;;5116621;28;19912;-29
2022/04/06 15:14:01;;;;;;;;;;;;;;;;;;5116204;28;19916;-29
2022/04/06 15:16:27;;;;;;;;;;;;;;;;;;5116207;28;19999;-29
2022/04/06 15:18:53;;;;;;;;;;;;;;;;;;5115985;28;19924;-28
2022/04/06 15:21:19;;;;;;;;;;;;;;;;;;5116646;28;19908;-29
2022/04/06 15:23:45;;;;;;;;;;;;;;;;;;5116069;28;19911;-29
2022/04/06 15:26:11;;;;;;;;;;;;;;;;;;5115957;28;19907;-29
2022/04/06 15:28:38;;;;;;;;;;;;;;;;;;5115861;28;19942;-29
2022/04/06 15:31:04;;;;;;;;;;;;;;;;;;5097962;28;19923;-29
2022/04/06 15:33:30;;;;;;;;;;;;;;;;;;5116024;28;19947;-29
2022/04/06 15:38:41;;;;;;;;;;;;;;;;;;5115495;28;19984;-29
2022/04/06 15:41:07;;;;;;;;;;;;;;;;;;5115771;28;20286;-29
2022/04/06 15:43:33;;;;;;;;;;;;;;;;;;5097770;28;20392;-29
2022/04/06 15:45:59;;;;;;;;;;;;;;;;;;5115796;28;19934;-29
2022/04/06 15:48:26;;;;;;;;;;;;;;;;;;5115334;28;19919;-30
2022/04/06 15:50:52;;;;;;;;;;;;;;;;;;5115592;28;19912;-29
2022/04/06 15:53:18;;;;;;;;;;;;;;;;;;5097594;28;20011;-31
2022/04/06 15:55:43;;;;;;;;;;;;;;;;;;5115505;28;19934;-30
2022/04/06 15:58:13;;;;;;;;;;;;;;;;;;5115612;28;19908;-30
2022/04/06 16:00:39;;;;;;;;;;;;;;;;;;5115507;28;19912;-30
2022/04/06 16:03:05;;;;;;;;;;;;;;;;;;5115478;28;20266;-30
2022/04/06 16:05:31;;;;;;;;;;;;;;;;;;5115521;28;19916;-30
2022/04/06 16:07:57;;;;;;;;;;;;;;;;;;5115408;28;20261;-30
2022/04/06 16:10:23;;;;;;;;;;;;;;;;;;5115542;28;19990;-30
2022/04/06 16:12:49;;;;;;;;;;;;;;;;;;5115660;28;19996;-30
2022/04/06 16:15:15;;;;;;;;;;;;;;;;;;5115434;28;19938;-30
2022/04/06 16:17:41;;;;;;;;;;;;;;;;;;5115376;28;20333;-30
2022/04/06 16:20:07;;;;;;;;;;;;;;;;;;5097265;28;19964;-30
2022/04/06 16:22:33;;;;;;;;;;;;;;;;;;5115418;28;19915;-28
2022/04/06 16:24:59;;;;;;;;;;;;;;;;;;5115304;28;19965;-30
2022/04/06 16:27:25;;;;;;;;;;;;;;;;;;5115929;28;19912;-30
2022/04/06 16:29:52;;;;;;;;;;;;;;;;;;5097402;28;19911;-30
2022/04/06 16:32:18;;;;;;;;;;;;;;;;;;5097182;28;19916;-30
2022/04/06 16:34:43;;;;;;;;;;;;;;;;;;5115136;28;19947;-29
2022/04/06 16:37:09;;;;;;;;;;;;;;;;;;5115069;28;19908;-28
2022/04/06 16:39:37;;;;;;;;;;;;;;;;;;5097117;28;19998;-28
2022/04/06 16:42:03;;;;;;;;;;;;;;;;;;5115366;28;20326;-29
2022/04/06 16:44:29;;;;;;;;;;;;;;;;;;5097087;28;19973;-29
2022/04/06 16:46:55;;;;;;;;;;;;;;;;;;5114991;28;19923;-28
2022/04/06 16:49:22;;;;;;;;;;;;;;;;;;5096968;28;19931;-28
2022/04/06 16:54:32;;;;;;;;;;;;;;;;;;5119081;28;19919;-28
2022/04/06 16:56:58;;;;;;;;;;;;;;;;;;5119170;28;19923;-28
2022/04/06 16:59:24;;;;;;;;;;;;;;;;;;5118841;28;19911;-28
2022/04/06 17:01:50;;;;;;;;;;;;;;;;;;5119113;28;20333;-28
2022/04/06 17:04:17;;;;;;;;;;;;;;;;;;5100718;28;19911;-30
2022/04/06 17:06:43;;;;;;;;;;;;;;;;;;5118719;28;20227;-29
2022/04/06 17:09:09;;;;;;;;;;;;;;;;;;5118834;28;19951;-29